Newdale, Idaho
Current Conditions -  °F | °C
As of 2:26 PM on Saturday 20 Dec 2014 (Local Time) from KRXE Reporting Station
Overcast Overcast  
Wind Chill: 24°   Ceiling: 1100
Heat Index: 34°   Visibility: 10mi
Dew Point: 33°   Wind: 16mph
Humidity: 96%   Direction: 230°SW
Pressure: 29.97"   Gusts: NA
Location:  43.89°N, 111.6°W
Report Text: KRXE 202126Z AUTO 23014KT 10SM BKN011 OVC018 01/01 A2997 RMK AO2 UPB08E17RAB17E26SNE08 P0001 T00110006
Loading
Personal Weather Stations






























Interactive Weather Map New forecast layout! Learn more

10-Day Weather Forecast

Advertisements
Track Severe Weather on mobile